createdAt,value
2017-08-14T00:02:17.574Z,99.70
2017-08-14T00:04:45.385Z,99.70
2017-08-14T00:07:13.955Z,99.80
2017-08-14T00:09:41.807Z,99.80
2017-08-14T00:12:09.626Z,99.80
2017-08-14T00:14:37.501Z,99.90
2017-08-14T00:17:05.313Z,99.90
2017-08-14T00:19:33.907Z,99.90
2017-08-14T00:22:02.529Z,99.70
2017-08-14T00:24:30.348Z,99.70
2017-08-14T00:26:58.237Z,99.80
2017-08-14T00:29:26.139Z,99.70
2017-08-14T00:31:53.948Z,99.50
2017-08-14T00:34:22.549Z,99.40
2017-08-14T00:36:50.378Z,99.40
2017-08-14T00:39:18.250Z,99.60
2017-08-14T00:41:46.086Z,99.80
2017-08-14T00:44:13.919Z,99.60
2017-08-14T00:46:41.837Z,99.60
2017-08-14T00:49:10.441Z,99.90
2017-08-14T00:51:38.368Z,99.90
2017-08-14T00:54:06.204Z,99.90
2017-08-14T00:56:34.041Z,99.90
2017-08-14T00:59:01.900Z,99.90
2017-08-14T01:01:29.710Z,99.90
2017-08-14T01:03:58.381Z,99.90
2017-08-14T01:06:28.181Z,99.90
2017-08-14T01:08:56.008Z,99.90
2017-08-14T01:11:24.353Z,99.90
2017-08-14T01:13:52.158Z,99.90
2017-08-14T01:16:20.125Z,99.90
2017-08-14T01:18:47.947Z,99.90
2017-08-14T01:21:15.922Z,99.80
2017-08-14T01:23:45.612Z,99.90
2017-08-14T01:26:13.438Z,99.90
2017-08-14T01:28:41.305Z,99.90
2017-08-14T01:31:09.217Z,99.90
2017-08-14T01:33:37.952Z,99.90
2017-08-14T01:36:05.813Z,99.90
2017-08-14T01:38:33.642Z,99.90
2017-08-14T01:41:02.287Z,99.90
2017-08-14T01:43:30.110Z,99.90
2017-08-14T01:45:57.912Z,99.90
2017-08-14T01:48:25.761Z,99.90
2017-08-14T01:50:53.569Z,99.90
2017-08-14T01:53:22.361Z,99.90
2017-08-14T01:55:50.189Z,99.90
2017-08-14T01:58:18.004Z,99.90
2017-08-14T02:00:45.862Z,99.90
2017-08-14T02:03:13.677Z,99.90
2017-08-14T02:05:41.553Z,99.90
2017-08-14T02:08:09.424Z,99.90
2017-08-14T02:10:37.241Z,99.90
2017-08-14T02:13:05.094Z,99.90
2017-08-14T02:15:32.914Z,99.90
2017-08-14T02:18:00.778Z,99.90
2017-08-14T02:20:29.361Z,99.90
2017-08-14T02:22:57.950Z,99.90
2017-08-14T02:25:26.557Z,99.90
2017-08-14T02:27:54.371Z,99.90
2017-08-14T02:30:23.069Z,99.90
2017-08-14T02:32:50.890Z,99.90
2017-08-14T02:35:18.718Z,99.90
2017-08-14T02:37:46.572Z,99.90
2017-08-14T02:40:15.155Z,99.90
2017-08-14T02:42:43.836Z,99.90
2017-08-14T02:45:12.521Z,99.90
2017-08-14T02:47:41.107Z,99.90
2017-08-14T02:50:08.952Z,99.90
2017-08-14T02:52:37.538Z,99.90
2017-08-14T02:55:06.324Z,99.90
2017-08-14T02:57:34.163Z,99.90
2017-08-14T03:00:01.985Z,99.90
2017-08-14T03:02:29.834Z,99.90
2017-08-14T03:04:57.645Z,99.90
2017-08-14T03:07:25.511Z,99.90
2017-08-14T03:09:53.326Z,99.90
2017-08-14T03:12:21.151Z,99.90
2017-08-14T03:14:48.998Z,99.90
2017-08-14T03:17:16.810Z,99.90
2017-08-14T03:19:44.678Z,99.90
2017-08-14T03:22:12.494Z,99.90
2017-08-14T03:24:40.317Z,99.90
2017-08-14T03:27:08.158Z,99.90
2017-08-14T03:29:35.989Z,99.90
2017-08-14T03:32:03.856Z,99.90
2017-08-14T03:34:31.674Z,99.90
2017-08-14T03:36:59.494Z,99.90
2017-08-14T03:39:28.112Z,99.90
2017-08-14T03:41:55.925Z,99.90
2017-08-14T03:44:23.802Z,99.90
2017-08-14T03:46:52.765Z,99.90
2017-08-14T03:49:20.582Z,99.90
2017-08-14T03:51:48.429Z,99.90
2017-08-14T03:54:17.014Z,99.90
2017-08-14T03:56:44.893Z,99.90
2017-08-14T03:59:12.714Z,99.90
2017-08-14T04:01:40.525Z,99.90
2017-08-14T04:04:08.378Z,99.90
2017-08-14T04:06:36.201Z,99.90
2017-08-14T04:09:04.253Z,99.90
2017-08-14T04:11:32.064Z,99.90
2017-08-14T04:13:59.888Z,99.90
2017-08-14T04:16:27.725Z,99.90
2017-08-14T04:18:55.549Z,99.90
2017-08-14T04:21:23.414Z,99.90
2017-08-14T04:23:51.995Z,99.90
2017-08-14T04:26:19.811Z,99.90
2017-08-14T04:28:47.669Z,99.90
2017-08-14T04:31:15.500Z,99.90
2017-08-14T04:33:43.363Z,99.90
2017-08-14T04:36:11.177Z,99.90
2017-08-14T04:38:38.989Z,99.90
2017-08-14T04:41:06.842Z,99.90
2017-08-14T04:43:34.659Z,99.90
2017-08-14T04:46:02.546Z,99.90
2017-08-14T04:48:31.134Z,99.90
2017-08-14T04:50:59.713Z,99.90
2017-08-14T04:53:28.323Z,99.90
2017-08-14T04:55:56.143Z,99.90
2017-08-14T04:58:24.014Z,99.90
2017-08-14T05:00:51.838Z,99.90
2017-08-14T05:03:19.669Z,99.90
2017-08-14T05:05:47.513Z,99.90
2017-08-14T05:08:16.101Z,99.90
2017-08-14T05:10:44.795Z,99.90
2017-08-14T05:13:12.612Z,99.90
2017-08-14T05:15:40.437Z,99.90
2017-08-14T05:18:08.333Z,99.90
2017-08-14T05:20:36.146Z,99.90
2017-08-14T05:23:04.014Z,99.90
2017-08-14T05:25:31.833Z,99.90
2017-08-14T05:27:59.641Z,99.90
2017-08-14T05:30:27.490Z,99.60
2017-08-14T05:32:56.071Z,99.60
2017-08-14T05:35:24.714Z,99.30
2017-08-14T05:37:52.517Z,99.30
2017-08-14T05:40:21.094Z,99.30
2017-08-14T05:42:49.710Z,98.50
2017-08-14T05:45:17.533Z,98.40
2017-08-14T05:47:46.277Z,98.40
2017-08-14T05:50:14.105Z,98.40
2017-08-14T05:52:41.936Z,98.70
2017-08-14T05:55:09.789Z,98.40
2017-08-14T05:57:37.610Z,98.20
2017-08-14T06:00:05.485Z,98.40
2017-08-14T06:02:33.402Z,98.00
2017-08-14T06:05:01.974Z,97.30
2017-08-14T06:07:29.793Z,97.30
2017-08-14T06:09:57.646Z,96.90
2017-08-14T06:12:25.486Z,96.80
2017-08-14T06:14:53.313Z,96.60
2017-08-14T06:17:21.175Z,95.60
2017-08-14T06:19:48.986Z,95.70
2017-08-14T06:22:16.814Z,96.00
2017-08-14T06:24:45.421Z,95.30
2017-08-14T06:27:13.280Z,95.30
2017-08-14T06:29:41.153Z,94.80
2017-08-14T06:32:08.965Z,94.90
2017-08-14T06:34:36.785Z,94.60
2017-08-14T06:37:04.633Z,93.60
2017-08-14T06:39:32.504Z,93.30
2017-08-14T06:42:00.393Z,92.70
2017-08-14T06:44:28.206Z,92.70
2017-08-14T06:46:56.013Z,91.90
2017-08-14T06:49:23.846Z,92.00
2017-08-14T06:51:52.440Z,91.90
2017-08-14T06:54:20.306Z,91.90
2017-08-14T06:56:48.133Z,90.90
2017-08-14T06:59:15.956Z,91.10
2017-08-14T07:01:43.806Z,90.80
2017-08-14T07:04:11.618Z,90.10
2017-08-14T07:06:39.493Z,89.30
2017-08-14T07:09:08.074Z,88.30
2017-08-14T07:11:36.659Z,89.30
2017-08-14T07:14:05.269Z,85.10
2017-08-14T07:16:33.082Z,85.10
2017-08-14T07:19:00.952Z,84.80
2017-08-14T07:21:28.765Z,86.50
2017-08-14T07:23:56.580Z,86.20
2017-08-14T07:26:24.416Z,86.90
2017-08-14T07:28:52.225Z,86.40
2017-08-14T07:31:20.855Z,84.90
2017-08-14T07:33:48.657Z,84.90
2017-08-14T07:36:17.237Z,84.10
2017-08-14T07:38:45.851Z,81.50
2017-08-14T07:41:13.662Z,81.40
2017-08-14T07:43:41.540Z,77.10
2017-08-14T07:46:09.354Z,77.80
2017-08-14T07:48:37.176Z,75.40
2017-08-14T07:51:05.799Z,70.50
2017-08-14T07:53:33.629Z,70.50
2017-08-14T07:56:02.265Z,66.70
2017-08-14T07:58:30.102Z,66.80
2017-08-14T08:00:57.928Z,64.70
2017-08-14T08:03:26.554Z,65.40
2017-08-14T08:05:54.375Z,64.60
2017-08-14T08:08:23.024Z,62.40
2017-08-14T08:10:50.836Z,62.50
2017-08-14T08:13:18.667Z,52.90
2017-08-14T08:15:46.514Z,49.30
2017-08-14T08:18:14.325Z,49.80
2017-08-14T08:20:42.208Z,50.70
2017-08-14T08:23:10.021Z,50.30
2017-08-14T08:25:37.838Z,51.90
2017-08-14T08:28:05.683Z,50.90
2017-08-14T08:30:33.498Z,49.30
2017-08-14T08:33:01.369Z,49.50
2017-08-14T08:35:29.198Z,47.70
2017-08-14T08:37:57.038Z,45.40
2017-08-14T08:40:24.887Z,45.80
2017-08-14T08:42:53.478Z,48.10
2017-08-14T08:45:21.353Z,48.70
2017-08-14T08:47:49.174Z,47.30
2017-08-14T08:50:16.999Z,47.10
2017-08-14T08:52:44.854Z,45.70
2017-08-14T08:55:12.680Z,44.50
2017-08-14T08:57:41.328Z,44.50
2017-08-14T09:00:09.177Z,44.80
2017-08-14T09:02:37.818Z,46.20
2017-08-14T09:05:05.693Z,46.50
2017-08-14T09:07:33.747Z,46.40
2017-08-14T09:10:01.630Z,47.70
2017-08-14T09:12:29.437Z,45.70
2017-08-14T09:14:57.275Z,45.30
2017-08-14T09:17:25.137Z,44.40
2017-08-14T09:19:52.957Z,46.70
2017-08-14T09:22:21.601Z,44.90
2017-08-14T09:24:49.425Z,44.90
2017-08-14T09:27:17.256Z,43.20
2017-08-14T09:29:45.871Z,43.60
2017-08-14T09:32:13.709Z,42.90
2017-08-14T09:34:41.606Z,42.10
2017-08-14T09:37:09.461Z,41.70
2017-08-14T09:39:37.277Z,40.70
2017-08-14T09:42:05.120Z,40.30
2017-08-14T09:44:32.940Z,39.80
2017-08-14T09:47:00.861Z,39.50
2017-08-14T09:49:28.673Z,40.30
2017-08-14T09:51:56.487Z,41.60
2017-08-14T09:54:24.334Z,41.60
2017-08-14T09:56:52.142Z,40.70
2017-08-14T09:59:20.791Z,41.30
2017-08-14T10:01:48.622Z,41.30
2017-08-14T10:04:16.450Z,41.70
2017-08-14T10:06:45.122Z,42.40
2017-08-14T10:09:13.697Z,41.90
2017-08-14T10:11:41.574Z,41.80
2017-08-14T10:14:10.155Z,40.30
2017-08-14T10:16:38.734Z,40.20
2017-08-14T10:19:07.380Z,39.80
2017-08-14T10:21:35.199Z,39.70
2017-08-14T10:24:03.076Z,42.00
2017-08-14T10:26:30.893Z,41.90
2017-08-14T10:28:58.709Z,43.70
2017-08-14T10:31:26.546Z,45.70
2017-08-14T10:33:54.403Z,45.10
2017-08-14T10:36:23.058Z,43.30
2017-08-14T10:38:50.862Z,43.30
2017-08-14T10:41:18.686Z,45.50
2017-08-14T10:43:46.538Z,46.00
2017-08-14T10:46:14.349Z,46.00
2017-08-14T10:48:42.233Z,46.20
2017-08-14T10:51:10.054Z,47.50
2017-08-14T10:53:37.867Z,46.20
2017-08-14T10:56:05.715Z,44.70
2017-08-14T10:58:33.535Z,43.20
2017-08-14T11:01:01.409Z,43.20
2017-08-14T11:03:29.990Z,43.70
2017-08-14T11:05:59.327Z,42.90
2017-08-14T11:08:27.196Z,42.80
2017-08-14T11:10:55.009Z,44.00
2017-08-14T11:13:23.646Z,45.00
2017-08-14T11:15:51.462Z,45.00
2017-08-14T11:18:20.051Z,45.70
2017-08-14T11:20:47.900Z,45.60
2017-08-14T11:23:16.551Z,47.70
2017-08-14T11:28:43.463Z,45.10
2017-08-14T11:31:11.400Z,45.20
2017-08-14T11:33:39.269Z,46.20
2017-08-14T11:36:07.886Z,43.70
2017-08-14T11:38:37.132Z,42.00
2017-08-14T11:41:05.317Z,42.30
2017-08-14T11:43:33.890Z,39.70
2017-08-14T11:46:01.916Z,39.40
2017-08-14T11:48:29.734Z,42.80
2017-08-14T11:50:57.710Z,41.10
2017-08-14T11:53:29.755Z,41.40
2017-08-14T11:55:58.193Z,41.60
2017-08-14T11:58:26.109Z,42.20
2017-08-14T12:00:55.353Z,43.30
2017-08-14T12:03:23.390Z,42.90
2017-08-14T12:05:53.886Z,43.40
2017-08-14T12:08:22.723Z,43.50
2017-08-14T12:10:50.653Z,43.30
2017-08-14T12:13:19.252Z,42.00
2017-08-14T12:15:47.177Z,42.00
2017-08-14T12:18:15.040Z,42.80
2017-08-14T12:20:42.843Z,42.70
2017-08-14T12:23:10.721Z,42.60
2017-08-14T12:25:38.525Z,42.20
2017-08-14T12:28:06.349Z,42.50
2017-08-14T12:30:34.196Z,41.30
2017-08-14T12:33:02.081Z,43.70
2017-08-14T12:35:29.953Z,41.30
2017-08-14T12:37:57.763Z,41.00
2017-08-14T12:40:25.575Z,37.10
2017-08-14T12:42:53.423Z,37.50
2017-08-14T12:45:21.233Z,38.60
2017-08-14T12:47:49.097Z,37.50
2017-08-14T12:50:16.909Z,38.40
2017-08-14T12:52:44.713Z,37.00
2017-08-14T12:55:12.539Z,37.10
2017-08-14T12:57:40.343Z,36.70
2017-08-14T13:00:08.611Z,38.60
2017-08-14T13:02:36.423Z,39.60
2017-08-14T13:05:04.246Z,39.10
2017-08-14T13:07:32.100Z,40.90
2017-08-14T13:09:59.909Z,41.20
2017-08-14T13:12:27.779Z,39.20
2017-08-14T13:14:55.585Z,42.00
2017-08-14T13:17:23.389Z,41.90
2017-08-14T13:19:51.983Z,40.60
2017-08-14T13:22:19.786Z,40.40
2017-08-14T13:24:47.658Z,40.00
2017-08-14T13:27:15.477Z,40.20
2017-08-14T13:29:43.302Z,41.40
2017-08-14T13:32:11.135Z,41.30
2017-08-14T13:34:39.032Z,41.40
2017-08-14T13:37:06.897Z,41.90
2017-08-14T13:39:34.721Z,41.50
2017-08-14T13:42:02.522Z,42.00
2017-08-14T13:44:31.161Z,38.80
2017-08-14T13:46:58.985Z,38.70
2017-08-14T13:49:27.633Z,39.70
2017-08-14T13:51:56.126Z,39.70
2017-08-14T13:54:25.085Z,40.30
2017-08-14T13:56:53.159Z,40.20
2017-08-14T13:59:22.536Z,39.50
2017-08-14T14:01:51.583Z,41.10
2017-08-14T14:04:19.648Z,40.70
2017-08-14T14:06:52.118Z,40.10
2017-08-14T14:09:21.372Z,40.00
2017-08-14T14:11:49.189Z,39.90
2017-08-14T14:14:19.400Z,40.00
2017-08-14T14:16:48.762Z,39.80
2017-08-14T14:19:18.668Z,39.60
2017-08-14T14:21:46.554Z,40.60
2017-08-14T14:24:15.223Z,41.00
2017-08-14T14:26:43.117Z,41.10
2017-08-14T14:29:10.930Z,38.00
2017-08-14T14:31:38.753Z,39.70
2017-08-14T14:34:07.357Z,41.00
2017-08-14T14:36:35.173Z,41.20
2017-08-14T14:39:03.145Z,40.80
2017-08-14T14:41:30.954Z,39.70
2017-08-14T14:43:58.949Z,41.10
2017-08-14T14:46:26.901Z,40.60
2017-08-14T14:48:54.856Z,39.80
2017-08-14T14:51:23.534Z,40.90
2017-08-14T14:53:51.381Z,40.20
2017-08-14T14:56:20.651Z,41.90
2017-08-14T14:58:48.456Z,41.80
2017-08-14T15:01:16.324Z,42.30
2017-08-14T15:03:44.337Z,42.80
2017-08-14T15:06:12.159Z,43.10
2017-08-14T15:08:39.987Z,43.30
2017-08-14T15:11:07.815Z,44.20
2017-08-14T15:13:35.629Z,44.60
2017-08-14T15:16:03.548Z,43.50
2017-08-14T15:18:32.154Z,42.70
2017-08-14T15:21:00.794Z,42.60
2017-08-14T15:23:28.723Z,42.60
2017-08-14T15:25:56.540Z,42.80
2017-08-14T15:28:24.374Z,43.00
2017-08-14T15:30:52.183Z,40.90
2017-08-14T15:33:20.049Z,40.60
2017-08-14T15:35:47.865Z,40.40
2017-08-14T15:38:15.709Z,41.80
2017-08-14T15:40:43.541Z,42.50
2017-08-14T15:43:12.130Z,44.80
2017-08-14T15:45:40.809Z,45.40
2017-08-14T15:48:08.621Z,45.30
2017-08-14T15:50:36.418Z,46.00
2017-08-14T15:53:04.256Z,47.00
2017-08-14T15:55:32.048Z,46.60
2017-08-14T15:57:59.913Z,46.60
2017-08-14T16:00:27.716Z,46.10
2017-08-14T16:02:55.532Z,46.90
2017-08-14T16:05:23.359Z,46.50
2017-08-14T16:07:51.172Z,47.00
2017-08-14T16:10:19.834Z,45.30
2017-08-14T16:12:47.644Z,45.30
2017-08-14T16:15:15.456Z,45.20
2017-08-14T16:17:43.294Z,45.70
2017-08-14T16:20:11.093Z,46.20
2017-08-14T16:22:38.959Z,46.10
2017-08-14T16:25:06.775Z,45.80
2017-08-14T16:27:34.588Z,46.40
2017-08-14T16:30:02.432Z,45.30
2017-08-14T16:32:30.245Z,46.40
2017-08-14T16:34:58.177Z,46.30
2017-08-14T16:37:25.973Z,46.70
2017-08-14T16:39:53.774Z,46.30
2017-08-14T16:42:21.618Z,45.90
2017-08-14T16:44:49.611Z,45.40
2017-08-14T16:47:17.470Z,45.90
2017-08-14T16:49:45.310Z,46.40
2017-08-14T16:52:13.105Z,45.90
2017-08-14T16:54:40.938Z,46.30
2017-08-14T16:57:08.901Z,46.20
2017-08-14T16:59:36.812Z,47.30
2017-08-14T17:02:04.765Z,46.10
2017-08-14T17:04:32.605Z,45.80
2017-08-14T17:07:00.514Z,46.10
2017-08-14T17:09:29.093Z,46.90
2017-08-14T17:11:58.762Z,46.90
2017-08-14T17:14:26.584Z,47.30
2017-08-14T17:16:54.534Z,48.00
2017-08-14T17:19:23.402Z,49.30
2017-08-14T17:21:51.669Z,48.60
2017-08-14T17:24:19.739Z,49.70
2017-08-14T17:26:47.592Z,50.00
2017-08-14T17:29:15.430Z,50.20
2017-08-14T17:31:43.369Z,50.00
2017-08-14T17:34:12.031Z,49.70
2017-08-14T17:36:40.697Z,49.30
2017-08-14T17:39:08.601Z,49.30
2017-08-14T17:41:37.448Z,50.10
2017-08-14T17:44:05.280Z,50.20
2017-08-14T17:46:33.267Z,50.70
2017-08-14T17:49:01.255Z,50.80
2017-08-14T17:51:29.077Z,51.10
2017-08-14T17:53:56.917Z,52.60
2017-08-14T17:56:25.801Z,52.80
2017-08-14T17:58:53.657Z,53.20
2017-08-14T18:01:22.374Z,55.20
2017-08-14T18:03:50.201Z,55.20
2017-08-14T18:06:18.833Z,56.70
2017-08-14T18:08:46.740Z,56.70
2017-08-14T18:11:15.171Z,57.10
2017-08-14T18:13:44.605Z,57.10
2017-08-14T18:16:12.417Z,57.50
2017-08-14T18:18:40.264Z,59.40
2017-08-14T18:21:08.101Z,60.30
2017-08-14T18:23:35.917Z,61.10
2017-08-14T18:26:03.921Z,61.90
2017-08-14T18:28:32.563Z,63.60
2017-08-14T18:31:00.500Z,63.60
2017-08-14T18:33:31.260Z,65.60
2017-08-14T18:35:59.170Z,66.10
2017-08-14T18:38:27.684Z,66.50
2017-08-14T18:40:59.355Z,66.30
2017-08-14T18:43:27.855Z,67.60
2017-08-14T18:45:56.197Z,68.50
2017-08-14T18:48:26.110Z,68.60
2017-08-14T18:50:55.235Z,69.70
2017-08-14T18:53:23.716Z,69.80
2017-08-14T18:55:52.731Z,70.40
2017-08-14T18:58:21.412Z,73.00
2017-08-14T19:00:49.284Z,72.40
2017-08-14T19:03:17.197Z,73.60
2017-08-14T19:05:45.053Z,74.10
2017-08-14T19:08:14.657Z,74.10
2017-08-14T19:10:41.148Z,74.40
2017-08-14T19:13:09.095Z,74.50
2017-08-14T19:15:37.159Z,74.80
2017-08-14T19:18:05.099Z,75.60
2017-08-14T19:20:33.201Z,75.80
2017-08-14T19:23:01.026Z,76.80
2017-08-14T19:25:28.927Z,78.10
2017-08-14T19:27:56.869Z,77.20
2017-08-14T19:30:24.728Z,77.20
2017-08-14T19:32:52.605Z,77.20
2017-08-14T19:35:20.735Z,77.30
2017-08-14T19:37:48.664Z,76.40
2017-08-14T19:40:16.489Z,76.90
2017-08-14T19:42:44.521Z,76.80
2017-08-14T19:45:12.505Z,76.80
2017-08-14T19:47:40.319Z,76.80
2017-08-14T19:50:08.143Z,77.70
2017-08-14T19:52:35.995Z,77.50
2017-08-14T19:55:03.814Z,77.10
2017-08-14T19:57:31.721Z,77.30
2017-08-14T19:59:59.561Z,76.20
2017-08-14T20:02:27.365Z,76.80
2017-08-14T20:04:55.211Z,76.80
2017-08-14T20:07:23.028Z,76.00
2017-08-14T20:09:51.086Z,76.10
2017-08-14T20:12:18.923Z,76.40
2017-08-14T20:14:46.728Z,76.30
2017-08-14T20:17:14.565Z,76.40
2017-08-14T20:19:42.369Z,77.60
2017-08-14T20:22:11.030Z,77.30
2017-08-14T20:24:38.845Z,77.20
2017-08-14T20:27:06.651Z,76.50
2017-08-14T20:29:34.481Z,75.30
2017-08-14T20:32:02.357Z,75.40
2017-08-14T20:34:30.234Z,76.50
2017-08-14T20:36:58.033Z,75.80
2017-08-14T20:39:26.615Z,77.60
2017-08-14T20:41:55.221Z,77.00
2017-08-14T20:44:23.027Z,76.90
2017-08-14T20:46:50.921Z,77.20
2017-08-14T20:49:19.512Z,75.60
2017-08-14T20:51:47.354Z,75.60
2017-08-14T20:54:15.209Z,76.20
2017-08-14T20:56:43.022Z,75.70
2017-08-14T20:59:10.893Z,73.50
2017-08-14T21:01:38.696Z,74.20
2017-08-14T21:04:06.525Z,75.50
2017-08-14T21:06:34.369Z,76.00
2017-08-14T21:09:02.198Z,75.80
2017-08-14T21:11:30.880Z,76.60
2017-08-14T21:13:58.695Z,76.60
2017-08-14T21:16:26.509Z,76.60
2017-08-14T21:18:55.123Z,75.40
2017-08-14T21:21:22.953Z,75.40
2017-08-14T21:23:51.588Z,77.40
2017-08-14T21:26:19.410Z,77.30
2017-08-14T21:28:47.245Z,78.40
2017-08-14T21:31:15.129Z,78.10
2017-08-14T21:33:43.710Z,78.30
2017-08-14T21:36:11.576Z,78.40
2017-08-14T21:38:40.157Z,78.30
2017-08-14T21:41:08.749Z,78.20
2017-08-14T21:43:36.596Z,78.20
2017-08-14T21:46:05.171Z,77.40
2017-08-14T21:48:33.807Z,77.00
2017-08-14T21:51:01.616Z,77.00
2017-08-14T21:53:29.427Z,76.70
2017-08-14T21:55:57.274Z,76.40
2017-08-14T21:58:25.082Z,76.70
2017-08-14T22:00:53.065Z,77.10
2017-08-14T22:03:20.896Z,78.20
2017-08-14T22:05:48.701Z,78.60
2017-08-14T22:08:17.326Z,78.00
2017-08-14T22:10:45.163Z,78.00
2017-08-14T22:13:13.050Z,77.40
2017-08-14T22:15:40.869Z,76.40
2017-08-14T22:18:09.469Z,76.20
2017-08-14T22:20:37.321Z,76.20
2017-08-14T22:23:05.160Z,77.30
2017-08-14T22:25:33.049Z,76.30
2017-08-14T22:28:01.628Z,74.80
2017-08-14T22:30:30.208Z,75.70
2017-08-14T22:32:58.821Z,76.40
2017-08-14T22:35:26.625Z,76.30
2017-08-14T22:37:54.496Z,76.30
2017-08-14T22:40:22.309Z,76.20
2017-08-14T22:42:50.114Z,77.40
2017-08-14T22:45:17.948Z,76.80
2017-08-14T22:47:45.758Z,77.00
2017-08-14T22:50:13.684Z,77.10
2017-08-14T22:52:41.483Z,78.10
2017-08-14T22:55:09.314Z,78.30
2017-08-14T22:57:37.166Z,78.80
2017-08-14T23:00:04.998Z,79.00
2017-08-14T23:02:33.661Z,79.30
2017-08-14T23:05:01.471Z,79.30
2017-08-14T23:07:29.277Z,80.20
2017-08-14T23:09:57.114Z,80.40
2017-08-14T23:12:24.917Z,80.40
2017-08-14T23:14:53.553Z,81.40
2017-08-14T23:17:21.385Z,81.40
2017-08-14T23:19:49.186Z,81.70
2017-08-14T23:22:17.034Z,82.30
2017-08-14T23:24:44.849Z,83.00
2017-08-14T23:27:13.476Z,83.80
2017-08-14T23:29:41.301Z,83.80
2017-08-14T23:32:09.870Z,85.50
2017-08-14T23:34:37.725Z,85.30
2017-08-14T23:37:05.533Z,85.50
2017-08-14T23:39:33.393Z,85.90
2017-08-14T23:42:01.217Z,86.20
2017-08-14T23:44:29.020Z,86.60
2017-08-14T23:46:56.875Z,87.00
2017-08-14T23:49:24.740Z,87.30
2017-08-14T23:51:52.622Z,87.70
2017-08-14T23:54:20.434Z,88.20
2017-08-14T23:56:48.253Z,88.40
2017-08-14T23:59:16.110Z,89.10
